D/T METAR WX W/DIR W/SPE G/SPE TEMP DEWP
23/05/19 13:20 EGSH 231220Z 27006KT 220V320 9999 FEW048 20/08 Q1016 NOSIG W (270°) 6.9mph 20°C 8°C
23/05/19 12:50 EGSH 231150Z VRB06KT 9999 FEW048 19/07 Q1016 NOSIG N (0°) 6.9mph 19°C 7°C
23/05/19 12:20 EGSH 231120Z 25007KT 180V300 9999 FEW041 19/09 Q1016 NOSIG WSW (250°) 8.1mph 19°C 9°C
23/05/19 11:50 EGSH 231050Z 28007KT 240V310 9999 FEW041 18/09 Q1016 NOSIG W (280°) 8.1mph 18°C 9°C
23/05/19 11:20 EGSH 231020Z 26006KT 200V300 9999 FEW041 18/09 Q1016 NOSIG W (260°) 6.9mph 18°C 9°C
23/05/19 10:50 EGSH 230950Z 27006KT 230V310 CAVOK 18/09 Q1017 NOSIG W (270°) 6.9mph 18°C 9°C
23/05/19 10:20 EGSH 230920Z 24005KT 180V320 CAVOK 17/10 Q1017 NOSIG WSW (240°) 5.8mph 17°C 10°C
23/05/19 09:50 EGSH 230850Z 24004KT 200V290 CAVOK 17/09 Q1017 NOSIG WSW (240°) 4.6mph 17°C 9°C
23/05/19 09:20 EGSH 230820Z VRB03KT CAVOK 16/09 Q1017 NOSIG N (0°) 3.5mph 16°C 9°C
23/05/19 08:50 EGSH 230750Z VRB02KT CAVOK 16/09 Q1017 NOSIG N (0°) 2.3mph 16°C 9°C
23/05/19 08:20 EGSH 230720Z VRB02KT CAVOK 15/09 Q1017 N (0°) 2.3mph 15°C 9°C
23/05/19 07:50 EGSH 230650Z VRB03KT CAVOK 14/09 Q1017 N (0°) 3.5mph 14°C 9°C
23/05/19 07:20 EGSH 230620Z VRB02KT CAVOK 12/09 Q1017 N (0°) 2.3mph 12°C 9°C
23/05/19 06:50 EGSH 230550Z 22002KT CAVOK 11/09 Q1016 SW (220°) 2.3mph 11°C 9°C
23/05/19 06:20 EGSH 230520Z 21003KT CAVOK 10/09 Q1016 NOSIG SSW (210°) 3.5mph 10°C 9°C
23/05/19 05:50 EGSH 230450Z 23003KT CAVOK 08/07 Q1016 SW (230°) 3.5mph 8°C 7°C
23/05/19 05:20 EGSH 230420Z AUTO VRB03KT 9999 NCD 08/07 Q1016 N (0°) 3.5mph 8°C 7°C
23/05/19 04:50 EGSH 230350Z AUTO 26001KT 9999 NCD 09/08 Q1016 W (260°) 1.2mph 9°C 8°C
23/05/19 04:20 EGSH 230320Z AUTO 26003KT 9999 NCD 09/08 Q1016 W (260°) 3.5mph 9°C 8°C
23/05/19 03:50 EGSH 230250Z AUTO 23003KT 9999 NCD 10/08 Q1016 SW (230°) 3.5mph 10°C 8°C
23/05/19 03:20 EGSH 230220Z AUTO 24004KT 9999 NCD 08/07 Q1016 WSW (240°) 4.6mph 8°C 7°C
23/05/19 02:50 EGSH 230150Z AUTO 24004KT 9999 NCD 09/08 Q1017 WSW (240°) 4.6mph 9°C 8°C
23/05/19 02:20 EGSH 230120Z AUTO 25003KT 9999 NCD 11/09 Q1017 WSW (250°) 3.5mph 11°C 9°C
23/05/19 01:50 EGSH 230050Z AUTO 21004KT 9999 NCD 11/09 Q1017 SSW (210°) 4.6mph 11°C 9°C
23/05/19 01:20 EGSH 230020Z AUTO 20006KT 9999 NCD 11/09 Q1017 SSW (200°) 6.9mph 11°C 9°C
23/05/19 00:20 EGSH 222320Z AUTO 19006KT 9999 NCD 12/08 Q1017 S (190°) 6.9mph 12°C 8°C
22/05/19 23:50 EGSH 222250Z AUTO 19007KT 9999 NCD 12/08 Q1017 S (190°) 8.1mph 12°C 8°C
22/05/19 23:20 EGSH 222220Z AUTO 19007KT 150V220 9999 NCD 11/08 Q1017 S (190°) 8.1mph 11°C 8°C
22/05/19 22:50 EGSH 222150Z 19008KT CAVOK 12/08 Q1018 S (190°) 9.2mph 12°C 8°C
22/05/19 22:20 EGSH 222120Z 19007KT CAVOK 12/08 Q1018 NOSIG S (190°) 8.1mph 12°C 8°C
22/05/19 21:50 EGSH 222050Z 18008KT CAVOK 13/08 Q1018 NOSIG S (180°) 9.2mph 13°C 8°C
22/05/19 21:20 EGSH 222020Z 18008KT CAVOK 14/08 Q1018 S (180°) 9.2mph 14°C 8°C
22/05/19 20:50 EGSH 221950Z 19008KT CAVOK 15/08 Q1018 NOSIG S (190°) 9.2mph 15°C 8°C
22/05/19 20:20 EGSH 221920Z 24005KT CAVOK 15/06 Q1017 NOSIG WSW (240°) 5.8mph 15°C 6°C
22/05/19 19:20 EGSH 221820Z 25009KT 220V290 CAVOK 18/04 Q1017 NOSIG WSW (250°) 10.4mph 18°C 4°C
22/05/19 18:50 EGSH 221750Z 26011KT CAVOK 19/05 Q1018 NOSIG W (260°) 12.7mph 19°C 5°C
22/05/19 17:50 EGSH 221650Z 25009KT CAVOK 19/05 Q1018 NOSIG WSW (250°) 10.4mph 19°C 5°C
22/05/19 17:20 EGSH 221620Z 27011KT 230V290 CAVOK 20/06 Q1018 NOSIG W (270°) 12.7mph 20°C 6°C
22/05/19 16:50 EGSH 221550Z 25011KT 210V270 9999 SCT040 19/05 Q1018 WSW (250°) 12.7mph 19°C 5°C
22/05/19 16:20 EGSH 221520Z 23009KT 190V270 9999 SCT040 19/05 Q1018 NOSIG SW (230°) 10.4mph 19°C 5°C
22/05/19 15:50 EGSH 221450Z 26009KT 220V310 CAVOK 20/04 Q1018 NOSIG W (260°) 10.4mph 20°C 4°C
22/05/19 15:20 EGSH 221420Z 25008KT 200V280 CAVOK 18/05 Q1018 NOSIG WSW (250°) 9.2mph 18°C 5°C
22/05/19 14:50 EGSH 221350Z 27010KT 240V320 CAVOK 19/06 Q1019 NOSIG W (270°) 11.5mph 19°C 6°C
22/05/19 13:50 EGSH 221250Z 25008KT 200V280 CAVOK 18/05 Q1019 NOSIG WSW (250°) 9.2mph 18°C 5°C
22/05/19 13:20 EGSH 221220Z 25010KT 220V280 CAVOK 19/05 Q1019 NOSIG WSW (250°) 11.5mph 19°C 5°C
22/05/19 12:20 EGSH 221120Z 25009KT 220V280 9999 FEW048 18/04 Q1019 NOSIG WSW (250°) 10.4mph 18°C 4°C
22/05/19 11:50 EGSH 221050Z 30007KT 240V360 CAVOK 17/05 Q1019 NOSIG WNW (300°) 8.1mph 17°C 5°C
22/05/19 11:20 EGSH 221020Z VRB05KT CAVOK 17/04 Q1019 NOSIG N (0°) 5.8mph 17°C 4°C